Time;durP1;ratioP1;P1;durP2;ratioP2;P2;SDS_P1;SDS_P2;PMS_P1;PMS_P2;Temp;Humidity;BMP_temperature;BMP_pressure;BME280_temperature;BME280_humidity;BME280_pressure;Samples;Min_cycle;Max_cycle;Signal;HPM_P1;HPM_P2
2023/08/21 00:02:00;;;;;;;8.90;8.30;;;26.20;27.50;;;;;;5138269;27;20918;-59
2023/08/21 00:04:26;;;;;;;9.60;8.90;;;26.20;27.50;;;;;;5138059;27;20263;-59
2023/08/21 00:06:52;;;;;;;10.13;9.47;;;26.20;27.70;;;;;;5138055;27;20172;-61
2023/08/21 00:09:17;;;;;;;9.70;9.10;;;26.20;27.60;;;;;;5137894;27;20416;-61
2023/08/21 00:11:43;;;;;;;10.33;9.53;;;26.20;27.70;;;;;;5137899;27;20226;-59
2023/08/21 00:14:08;;;;;;;10.13;9.43;;;26.20;27.80;;;;;;5137607;27;20175;-59
2023/08/21 00:16:34;;;;;;;9.40;8.90;;;26.10;27.90;;;;;;5137724;27;20204;-59
2023/08/21 00:19:00;;;;;;;10.83;10.20;;;26.10;28.00;;;;;;5137611;27;20174;-59
2023/08/21 00:21:25;;;;;;;10.00;9.27;;;26.10;28.10;;;;;;5137749;27;20664;-58
2023/08/21 00:23:51;;;;;;;10.87;10.17;;;26.10;28.00;;;;;;5137704;27;20169;-59
2023/08/21 00:26:18;;;;;;;9.80;9.20;;;26.10;28.20;;;;;;5137680;27;20173;-59
2023/08/21 00:28:43;;;;;;;11.70;10.73;;;26.10;28.20;;;;;;5137370;27;20229;-59
2023/08/21 00:31:09;;;;;;;9.77;9.27;;;26.10;28.20;;;;;;5137660;27;20418;-59
2023/08/21 00:33:34;;;;;;;10.70;9.87;;;26.10;28.30;;;;;;5137551;27;20636;-59
2023/08/21 00:36:00;;;;;;;10.17;9.43;;;26.00;28.40;;;;;;5137351;27;20466;-59
2023/08/21 00:38:26;;;;;;;10.80;9.70;;;26.00;28.30;;;;;;5137341;27;20179;-59
2023/08/21 00:40:52;;;;;;;9.77;9.07;;;26.00;28.30;;;;;;5137734;27;20643;-59
2023/08/21 00:43:18;;;;;;;9.57;9.00;;;26.00;28.30;;;;;;5137456;27;20402;-59
2023/08/21 00:45:45;;;;;;;9.70;9.13;;;26.00;28.30;;;;;;5137290;27;20180;-59
2023/08/21 00:48:12;;;;;;;10.40;9.70;;;26.00;28.40;;;;;;5137051;27;20577;-58
2023/08/21 00:50:40;;;;;;;9.57;8.70;;;26.00;28.40;;;;;;5137054;27;20992;-59
2023/08/21 00:53:06;;;;;;;10.67;9.67;;;26.00;28.20;;;;;;5137115;27;20441;-59
2023/08/21 00:55:32;;;;;;;10.20;9.47;;;26.00;28.30;;;;;;5137088;27;20822;-58
2023/08/21 00:57:58;;;;;;;9.90;9.30;;;25.90;28.10;;;;;;5136841;27;20406;-59
2023/08/21 01:00:25;;;;;;;10.83;10.13;;;26.00;28.30;;;;;;5155731;27;20413;-59
2023/08/21 01:02:51;;;;;;;10.50;9.70;;;25.90;28.40;;;;;;5136882;27;20414;-61
2023/08/21 01:05:19;;;;;;;10.50;9.80;;;25.90;28.50;;;;;;5136964;27;20433;-61
2023/08/21 01:07:57;;;;;;;10.00;9.20;;;25.90;28.60;;;;;;5136658;27;20534;-62
2023/08/21 01:10:29;;;;;;;10.20;9.20;;;25.90;28.50;;;;;;5136858;27;20774;-60
2023/08/21 01:13:23;;;;;;;10.50;9.90;;;25.90;28.50;;;;;;5136681;27;20409;-62
2023/08/21 01:15:52;;;;;;;10.77;10.07;;;25.90;28.50;;;;;;5136568;27;20447;-61
2023/08/21 01:18:19;;;;;;;9.70;9.10;;;25.80;28.50;;;;;;5136452;27;20605;-61
2023/08/21 01:20:44;;;;;;;11.00;10.20;;;25.80;28.70;;;;;;5136500;27;20406;-61
2023/08/21 01:23:10;;;;;;;10.90;9.83;;;25.80;28.70;;;;;;5136497;27;20747;-61
2023/08/21 01:25:37;;;;;;;9.60;8.90;;;25.80;28.80;;;;;;5135332;27;20608;-60
2023/08/21 01:28:03;;;;;;;9.20;8.60;;;25.80;29.00;;;;;;5136199;27;20259;-61
2023/08/21 01:30:33;;;;;;;10.20;9.50;;;25.80;29.10;;;;;;5136307;27;20512;-60
2023/08/21 01:33:06;;;;;;;10.03;9.43;;;25.70;29.10;;;;;;5136494;27;20315;-62
2023/08/21 01:35:34;;;;;;;10.00;9.40;;;25.70;29.30;;;;;;5136185;27;20467;-60
2023/08/21 01:38:01;;;;;;;9.77;9.17;;;25.70;29.40;;;;;;5136095;27;20951;-61
2023/08/21 01:40:26;;;;;;;9.53;8.93;;;25.60;29.50;;;;;;5136184;27;20418;-63
2023/08/21 01:42:55;;;;;;;10.10;9.40;;;25.60;29.50;;;;;;5136119;27;20902;-62
2023/08/21 01:45:21;;;;;;;10.47;9.77;;;25.70;29.60;;;;;;5136269;27;20203;-58
2023/08/21 01:47:47;;;;;;;9.70;9.13;;;25.60;29.80;;;;;;5154333;27;20909;-62
2023/08/21 01:50:13;;;;;;;10.20;9.60;;;25.60;29.80;;;;;;5135951;27;20516;-61
2023/08/21 01:52:38;;;;;;;10.33;9.63;;;25.60;30.00;;;;;;5135923;27;20179;-62
2023/08/21 01:55:07;;;;;;;10.00;9.40;;;25.60;30.00;;;;;;5136014;27;20283;-62
2023/08/21 01:57:33;;;;;;;10.53;9.60;;;25.50;30.00;;;;;;5135737;27;20164;-61
2023/08/21 01:59:59;;;;;;;9.87;9.17;;;25.60;30.00;;;;;;5135702;27;20413;-61
2023/08/21 02:02:24;;;;;;;10.87;9.80;;;25.50;30.00;;;;;;5135791;27;20324;-62
2023/08/21 02:04:50;;;;;;;11.00;10.00;;;25.50;30.10;;;;;;5135704;27;20177;-62
2023/08/21 02:07:15;;;;;;;11.17;10.20;;;25.50;30.20;;;;;;5135781;27;20268;-62
2023/08/21 02:09:41;;;;;;;10.40;9.40;;;25.50;30.40;;;;;;5135629;27;20176;-62
2023/08/21 02:12:07;;;;;;;10.63;9.83;;;25.50;30.50;;;;;;5135742;27;20172;-61
2023/08/21 02:14:32;;;;;;;10.93;10.20;;;25.50;30.50;;;;;;5154058;27;20171;-61
2023/08/21 02:16:58;;;;;;;11.87;11.07;;;25.50;30.50;;;;;;5118436;27;20169;-61
2023/08/21 02:19:23;;;;;;;11.97;10.87;;;25.40;30.60;;;;;;5135423;27;20650;-62
2023/08/21 02:21:49;;;;;;;10.50;9.70;;;25.40;30.50;;;;;;5135506;27;20169;-61
2023/08/21 02:24:15;;;;;;;10.00;9.40;;;25.40;30.50;;;;;;5135678;27;20557;-62
2023/08/21 02:26:42;;;;;;;11.77;10.87;;;25.50;30.50;;;;;;5153954;27;20225;-61
2023/08/21 02:29:07;;;;;;;10.67;10.07;;;25.40;30.60;;;;;;5118236;27;20173;-61
2023/08/21 02:31:33;;;;;;;10.83;10.03;;;25.40;30.80;;;;;;5135231;27;20978;-58
2023/08/21 02:33:59;;;;;;;11.83;11.17;;;25.40;30.80;;;;;;5135365;27;20176;-58
2023/08/21 02:36:24;;;;;;;11.60;11.00;;;25.40;30.90;;;;;;5135241;27;20510;-59
2023/08/21 02:38:50;;;;;;;11.07;10.37;;;25.40;30.90;;;;;;5135313;27;20526;-59
2023/08/21 02:41:18;;;;;;;11.97;11.17;;;25.30;31.00;;;;;;5154186;27;20172;-59
2023/08/21 02:43:43;;;;;;;10.80;10.20;;;25.30;30.90;;;;;;5135297;27;20168;-59
2023/08/21 02:46:09;;;;;;;12.13;11.00;;;25.30;31.20;;;;;;5135395;27;20406;-59
2023/08/21 02:48:35;;;;;;;11.40;10.70;;;25.30;31.30;;;;;;5134921;27;20641;-58
2023/08/21 02:51:02;;;;;;;9.93;9.33;;;25.30;31.50;;;;;;5135149;27;20184;-59
2023/08/21 02:53:28;;;;;;;11.80;11.20;;;25.30;31.40;;;;;;5135227;27;20192;-59
2023/08/21 02:55:53;;;;;;;12.63;11.93;;;25.30;31.40;;;;;;5135031;27;20456;-59
2023/08/21 02:58:19;;;;;;;12.00;11.20;;;25.20;31.30;;;;;;5134946;27;20168;-58
2023/08/21 03:00:45;;;;;;;10.70;9.87;;;25.20;31.30;;;;;;5134992;27;20640;-59
2023/08/21 03:03:11;;;;;;;11.40;10.70;;;25.20;31.20;;;;;;5135139;27;20173;-59
2023/08/21 03:05:36;;;;;;;12.20;11.53;;;25.20;31.40;;;;;;5153420;27;20188;-59
2023/08/21 03:08:02;;;;;;;11.23;10.43;;;25.10;31.70;;;;;;5134865;27;20414;-58
2023/08/21 03:10:33;;;;;;;12.87;12.07;;;25.10;31.90;;;;;;5134993;27;20541;-59
2023/08/21 03:12:58;;;;;;;12.00;11.30;;;25.10;32.20;;;;;;5153383;27;20223;-59
2023/08/21 03:15:24;;;;;;;12.00;10.90;;;25.10;32.90;;;;;;5134828;27;20485;-59
2023/08/21 03:17:50;;;;;;;12.17;11.30;;;25.10;32.50;;;;;;5134660;27;20177;-58
2023/08/21 03:20:17;;;;;;;12.87;12.17;;;25.10;32.50;;;;;;5153405;27;20168;-60
2023/08/21 03:22:43;;;;;;;12.70;11.90;;;25.00;32.70;;;;;;5134926;27;20175;-60
2023/08/21 03:25:09;;;;;;;13.10;12.30;;;25.00;33.10;;;;;;5134972;27;20485;-61
2023/08/21 03:27:38;;;;;;;12.03;11.30;;;25.00;33.40;;;;;;5153420;27;20275;-61
2023/08/21 03:30:07;;;;;;;11.23;10.63;;;25.00;33.10;;;;;;5134684;27;20925;-62
2023/08/21 03:32:33;;;;;;;12.50;11.73;;;25.00;32.90;;;;;;5153263;27;20492;-62
2023/08/21 03:34:59;;;;;;;13.23;12.33;;;25.00;32.60;;;;;;5134693;27;20536;-61
2023/08/21 03:37:24;;;;;;;13.70;12.93;;;24.90;33.20;;;;;;5153347;27;20192;-61
2023/08/21 03:39:50;;;;;;;12.87;12.17;;;24.90;33.80;;;;;;5134471;27;20272;-61
2023/08/21 03:42:16;;;;;;;12.90;12.10;;;25.00;34.20;;;;;;5134829;27;20532;-61
2023/08/21 03:44:41;;;;;;;12.70;11.90;;;24.90;34.20;;;;;;5134441;27;20164;-61
2023/08/21 03:47:07;;;;;;;12.80;12.00;;;24.90;34.20;;;;;;5134715;27;20179;-62
2023/08/21 03:49:33;;;;;;;13.20;12.27;;;24.90;34.20;;;;;;5137073;27;20189;-61
2023/08/21 03:51:58;;;;;;;12.70;11.90;;;24.90;34.20;;;;;;5138533;27;20276;-59
2023/08/21 03:54:24;;;;;;;12.33;11.53;;;24.80;34.40;;;;;;5138341;27;20248;-59
2023/08/21 03:56:49;;;;;;;14.07;13.13;;;24.80;34.50;;;;;;5138281;27;20172;-58
2023/08/21 03:59:15;;;;;;;13.20;12.40;;;24.80;34.60;;;;;;5138084;27;20662;-60
2023/08/21 04:01:41;;;;;;;14.63;13.53;;;24.90;34.80;;;;;;5138259;27;20169;-61
2023/08/21 04:04:06;;;;;;;12.87;12.07;;;24.90;34.80;;;;;;5138191;27;20217;-60
2023/08/21 04:06:32;;;;;;;14.33;13.07;;;24.90;34.80;;;;;;5138221;27;20168;-62
2023/08/21 04:08:58;;;;;;;14.30;13.30;;;24.80;34.90;;;;;;5137727;27;20536;-62
2023/08/21 04:11:23;;;;;;;14.70;13.70;;;24.80;35.10;;;;;;5156746;27;20180;-62
2023/08/21 04:13:49;;;;;;;15.40;14.60;;;24.80;35.00;;;;;;5137899;27;20177;-62
2023/08/21 04:16:15;;;;;;;15.27;14.27;;;24.80;34.90;;;;;;5137938;27;20545;-61
2023/08/21 04:18:41;;;;;;;16.67;15.10;;;24.80;35.10;;;;;;5137630;27;20283;-62
2023/08/21 04:21:07;;;;;;;15.50;14.47;;;24.80;35.10;;;;;;5138069;27;20417;-59
2023/08/21 04:23:33;;;;;;;15.80;14.80;;;24.80;35.30;;;;;;5138246;27;20169;-61
2023/08/21 04:26:02;;;;;;;14.30;13.60;;;24.80;35.40;;;;;;5137649;27;20173;-61
2023/08/21 04:28:33;;;;;;;14.67;13.87;;;24.70;35.40;;;;;;5137452;27;20256;-62
2023/08/21 04:30:59;;;;;;;16.23;14.80;;;24.70;35.40;;;;;;5137932;27;20445;-61
2023/08/21 04:33:26;;;;;;;14.87;13.80;;;24.70;35.30;;;;;;5137811;27;20413;-60
2023/08/21 04:35:52;;;;;;;15.23;14.43;;;24.70;35.40;;;;;;5137327;27;20445;-57
2023/08/21 04:38:17;;;;;;;15.10;14.10;;;24.70;35.60;;;;;;5137394;27;20505;-59
2023/08/21 04:40:43;;;;;;;16.43;14.57;;;24.70;35.90;;;;;;5137350;27;20809;-59
2023/08/21 04:43:08;;;;;;;15.40;14.30;;;24.70;35.90;;;;;;5137456;27;20267;-58
2023/08/21 04:45:34;;;;;;;13.67;12.73;;;24.70;36.10;;;;;;5137316;27;20168;-59
2023/08/21 04:48:00;;;;;;;14.90;14.10;;;24.70;36.20;;;;;;5137225;27;20556;-59
2023/08/21 04:50:26;;;;;;;15.77;14.77;;;24.70;36.30;;;;;;5137188;27;20755;-59
2023/08/21 04:52:51;;;;;;;15.40;14.30;;;24.70;36.50;;;;;;5137074;27;20191;-60
2023/08/21 04:55:17;;;;;;;15.47;14.53;;;24.70;37.00;;;;;;5137093;27;20200;-60
2023/08/21 04:57:43;;;;;;;15.23;14.43;;;24.60;36.90;;;;;;5137056;27;20168;-58
2023/08/21 05:00:09;;;;;;;13.67;12.77;;;24.60;36.90;;;;;;5136795;27;20176;-58
2023/08/21 05:02:35;;;;;;;14.83;14.03;;;24.60;36.90;;;;;;5136919;27;20176;-59
2023/08/21 05:05:00;;;;;;;14.30;13.40;;;24.60;36.70;;;;;;5155400;27;20398;-60
2023/08/21 05:07:27;;;;;;;15.63;14.57;;;24.60;36.60;;;;;;5136901;27;20188;-59
2023/08/21 05:09:52;;;;;;;13.60;12.80;;;24.60;36.50;;;;;;5136448;27;20176;-60
2023/08/21 05:12:18;;;;;;;13.30;12.20;;;24.70;36.40;;;;;;5137062;27;20570;-59
2023/08/21 05:14:43;;;;;;;13.70;13.00;;;24.70;36.10;;;;;;5136678;27;20172;-60
2023/08/21 05:17:09;;;;;;;16.23;15.03;;;24.60;35.40;;;;;;5136876;27;20528;-60
2023/08/21 05:19:35;;;;;;;16.33;15.23;;;24.60;35.50;;;;;;5136386;27;20180;-60
2023/08/21 05:22:00;;;;;;;15.60;14.70;;;24.60;35.80;;;;;;5136807;27;20176;-59
2023/08/21 05:24:26;;;;;;;14.40;13.53;;;24.60;35.50;;;;;;5136612;27;20172;-60
2023/08/21 05:26:52;;;;;;;15.90;15.10;;;24.60;35.50;;;;;;5136355;27;20260;-59
2023/08/21 05:29:17;;;;;;;16.30;15.40;;;24.60;35.50;;;;;;5136250;27;20192;-60
2023/08/21 05:31:43;;;;;;;15.20;14.40;;;24.70;35.50;;;;;;5136363;27;20175;-59
2023/08/21 05:34:08;;;;;;;14.80;13.40;;;24.70;35.50;;;;;;5131403;27;20174;-59
2023/08/21 05:36:34;;;;;;;16.00;14.90;;;24.70;35.40;;;;;;5132613;27;20610;-58
2023/08/21 05:39:05;;;;;;;15.57;14.67;;;24.70;35.60;;;;;;5132622;27;20203;-59
2023/08/21 05:41:31;;;;;;;17.07;15.97;;;24.70;35.50;;;;;;5135695;27;20177;-58
2023/08/21 05:43:57;;;;;;;16.37;15.27;;;24.80;35.50;;;;;;5136190;27;20441;-58
2023/08/21 05:46:22;;;;;;;18.60;17.17;;;24.80;35.30;;;;;;5136287;27;20438;-57
2023/08/21 05:48:48;;;;;;;16.80;15.70;;;24.80;35.00;;;;;;5135489;27;20184;-58
2023/08/21 05:51:14;;;;;;;17.03;16.10;;;24.80;34.90;;;;;;5134893;27;20192;-58
2023/08/21 05:53:39;;;;;;;17.60;16.50;;;24.80;35.00;;;;;;5136272;27;20621;-58
2023/08/21 05:56:05;;;;;;;17.10;15.50;;;24.80;34.90;;;;;;5135939;27;20204;-60
2023/08/21 05:58:32;;;;;;;15.83;14.83;;;24.80;34.70;;;;;;5136095;27;20192;-60
2023/08/21 06:00:58;;;;;;;16.80;15.90;;;24.80;35.40;;;;;;5135967;27;20453;-60
2023/08/21 06:03:24;;;;;;;18.47;17.37;;;24.80;35.40;;;;;;5135835;27;20813;-59
2023/08/21 06:05:50;;;;;;;16.77;15.90;;;24.80;34.70;;;;;;5140259;27;20405;-59
2023/08/21 06:08:15;;;;;;;16.90;16.07;;;24.70;34.70;;;;;;5134313;27;20191;-60
2023/08/21 06:10:41;;;;;;;16.93;15.90;;;24.80;35.00;;;;;;5133748;27;20173;-61
2023/08/21 06:13:06;;;;;;;16.60;15.60;;;24.80;35.10;;;;;;5134034;27;20177;-60
2023/08/21 06:15:32;;;;;;;17.70;16.30;;;24.80;34.90;;;;;;5133677;27;20207;-60
2023/08/21 06:17:59;;;;;;;16.63;15.83;;;24.80;35.00;;;;;;5133477;27;20172;-60
2023/08/21 06:20:26;;;;;;;16.70;15.90;;;24.80;34.10;;;;;;5133897;27;20346;-60
2023/08/21 06:22:52;;;;;;;16.80;15.90;;;24.80;34.10;;;;;;5133410;27;20749;-60
2023/08/21 06:25:19;;;;;;;16.50;15.50;;;24.90;34.20;;;;;;5134824;27;20557;-60
2023/08/21 06:27:45;;;;;;;15.77;14.77;;;24.90;34.20;;;;;;5134021;27;20437;-61
2023/08/21 06:30:11;;;;;;;16.70;15.70;;;24.90;34.10;;;;;;5134190;27;20866;-60
2023/08/21 06:32:36;;;;;;;17.40;16.07;;;24.90;34.20;;;;;;5134308;27;20188;-59
2023/08/21 06:35:02;;;;;;;16.03;15.13;;;24.90;34.20;;;;;;5134315;27;20820;-61
2023/08/21 06:37:28;;;;;;;17.40;16.40;;;24.90;34.20;;;;;;5134564;27;20181;-61
2023/08/21 06:39:53;;;;;;;17.57;16.30;;;25.00;34.20;;;;;;5134366;27;20172;-61
2023/08/21 06:42:19;;;;;;;16.50;15.60;;;25.00;34.30;;;;;;5134016;27;20176;-61
2023/08/21 06:44:44;;;;;;;16.80;15.90;;;25.10;34.30;;;;;;5134596;27;20225;-61
2023/08/21 06:47:10;;;;;;;17.40;16.10;;;25.10;33.80;;;;;;5134509;27;20172;-61
2023/08/21 06:49:36;;;;;;;18.33;16.80;;;25.10;33.00;;;;;;5133797;27;20191;-60
2023/08/21 06:52:03;;;;;;;17.47;16.27;;;25.20;32.70;;;;;;5153036;27;20173;-60
2023/08/21 06:54:29;;;;;;;17.03;15.90;;;25.20;32.90;;;;;;5134173;27;20169;-61
2023/08/21 06:56:54;;;;;;;17.70;16.60;;;25.20;32.70;;;;;;5134635;27;20988;-61
2023/08/21 06:59:20;;;;;;;17.83;16.37;;;25.20;32.40;;;;;;5134550;27;20176;-61
2023/08/21 07:01:46;;;;;;;16.80;15.83;;;25.20;32.60;;;;;;5134295;27;20594;-60
2023/08/21 07:04:11;;;;;;;16.90;15.87;;;25.30;32.10;;;;;;5133896;27;20632;-60
2023/08/21 07:06:37;;;;;;;16.30;15.30;;;25.30;31.70;;;;;;5117181;27;20179;-60
2023/08/21 07:09:02;;;;;;;15.50;14.50;;;25.40;31.50;;;;;;5134542;27;20184;-60
2023/08/21 07:11:28;;;;;;;15.60;14.80;;;25.50;31.40;;;;;;5133306;27;20184;-59
2023/08/21 07:13:55;;;;;;;16.43;15.43;;;25.50;31.40;;;;;;5133500;27;20219;-60
2023/08/21 07:16:20;;;;;;;15.97;14.97;;;25.50;31.70;;;;;;5134443;27;20216;-58
2023/08/21 07:18:46;;;;;;;16.03;14.93;;;25.50;31.40;;;;;;5133841;27;20753;-58
2023/08/21 07:21:12;;;;;;;15.03;14.33;;;25.60;31.40;;;;;;5134680;27;20176;-58
2023/08/21 07:23:37;;;;;;;16.77;15.10;;;25.60;31.70;;;;;;5136057;27;20536;-58
2023/08/21 07:26:04;;;;;;;13.80;13.00;;;25.60;31.40;;;;;;5121859;27;20176;-58
2023/08/21 07:28:30;;;;;;;15.23;14.03;;;25.70;31.20;;;;;;5138570;27;20184;-58
2023/08/21 07:30:57;;;;;;;15.90;14.80;;;25.70;31.20;;;;;;5138651;27;20422;-58
2023/08/21 07:33:23;;;;;;;14.10;13.27;;;25.70;30.90;;;;;;5138814;27;20208;-58
2023/08/21 07:36:00;;;;;;;17.07;15.70;;;25.70;31.60;;;;;;5138357;27;20867;-58
2023/08/21 07:38:26;;;;;;;15.03;14.03;;;25.80;30.70;;;;;;5138577;27;20417;-58
2023/08/21 07:41:01;;;;;;;15.70;14.60;;;26.00;29.70;;;;;;5138357;27;20786;-58
2023/08/21 07:43:27;;;;;;;16.37;15.27;;;26.00;29.70;;;;;;5138698;27;20183;-58
2023/08/21 07:45:53;;;;;;;16.00;14.80;;;26.10;29.80;;;;;;5137944;27;20921;-58
2023/08/21 07:48:18;;;;;;;15.87;14.83;;;26.10;29.80;;;;;;5137859;27;20176;-59
2023/08/21 07:50:51;;;;;;;15.50;14.40;;;26.10;29.80;;;;;;5137934;27;20188;-59
2023/08/21 07:53:17;;;;;;;16.07;14.70;;;26.20;30.10;;;;;;5138320;27;20176;-58
2023/08/21 07:55:43;;;;;;;15.17;14.20;;;26.30;30.00;;;;;;5138035;27;20457;-58
2023/08/21 07:58:08;;;;;;;16.20;14.90;;;26.30;30.00;;;;;;5138021;27;20533;-58
2023/08/21 08:00:34;;;;;;;15.60;14.23;;;26.30;30.30;;;;;;5138064;27;20179;-58
2023/08/21 08:02:59;;;;;;;16.37;15.20;;;26.30;30.50;;;;;;5138357;27;20177;-58
2023/08/21 08:05:25;;;;;;;15.73;14.57;;;26.40;29.90;;;;;;5137992;27;20184;-58
2023/08/21 08:07:50;;;;;;;16.53;15.33;;;26.50;30.00;;;;;;5137455;27;20309;-57
2023/08/21 08:10:16;;;;;;;17.20;15.80;;;26.50;31.00;;;;;;5137500;27;20537;-58
2023/08/21 08:12:44;;;;;;;17.30;15.80;;;26.60;30.00;;;;;;5135040;27;20180;-58
2023/08/21 08:15:10;;;;;;;15.67;14.67;;;26.70;30.00;;;;;;5137637;27;20575;-58
2023/08/21 08:17:35;;;;;;;15.20;14.20;;;26.90;29.60;;;;;;5137839;27;20921;-57
2023/08/21 08:20:01;;;;;;;16.60;15.40;;;26.90;29.60;;;;;;5137483;27;20414;-58
2023/08/21 08:22:27;;;;;;;16.97;15.83;;;27.00;29.20;;;;;;5156427;27;20624;-59
2023/08/21 08:24:52;;;;;;;16.40;15.07;;;27.10;28.90;;;;;;5137575;27;20470;-59
2023/08/21 08:27:18;;;;;;;16.60;15.60;;;27.10;28.40;;;;;;5137630;27;20228;-58
2023/08/21 08:29:44;;;;;;;16.20;15.07;;;27.10;27.30;;;;;;5137461;27;20172;-59
2023/08/21 08:32:09;;;;;;;15.70;14.40;;;27.10;27.20;;;;;;5137602;27;20254;-59
2023/08/21 08:34:35;;;;;;;14.50;13.50;;;27.20;26.30;;;;;;5120008;27;20169;-59
2023/08/21 08:37:00;;;;;;;14.83;13.83;;;27.20;26.40;;;;;;5137379;27;20164;-59
2023/08/21 08:39:26;;;;;;;13.70;13.00;;;27.30;26.40;;;;;;5137252;27;20177;-59
2023/08/21 08:42:05;;;;;;;14.50;13.40;;;27.30;26.20;;;;;;5137251;27;20181;-58
2023/08/21 08:44:36;;;;;;;14.47;13.60;;;27.30;26.30;;;;;;5137129;27;20981;-58
2023/08/21 08:47:02;;;;;;;16.47;15.17;;;27.30;26.20;;;;;;5137268;27;20907;-58
2023/08/21 08:49:28;;;;;;;15.30;14.40;;;27.30;26.30;;;;;;5155696;27;20425;-60
2023/08/21 08:51:54;;;;;;;15.30;14.30;;;27.30;26.20;;;;;;5137174;27;20949;-60
2023/08/21 08:54:21;;;;;;;15.60;14.60;;;27.30;26.20;;;;;;5137172;27;20771;-61
2023/08/21 08:56:47;;;;;;;15.27;14.33;;;27.30;26.40;;;;;;5136891;27;20980;-60
2023/08/21 08:59:14;;;;;;;15.30;14.27;;;27.30;26.40;;;;;;5137010;27;20559;-61
2023/08/21 09:01:43;;;;;;;14.80;13.97;;;27.30;26.20;;;;;;5137041;27;20418;-61
2023/08/21 09:04:09;;;;;;;15.47;14.57;;;27.40;26.30;;;;;;5137068;27;20499;-58
2023/08/21 09:06:36;;;;;;;15.73;14.67;;;27.40;26.30;;;;;;5136931;27;20425;-59
2023/08/21 09:09:01;;;;;;;15.10;14.10;;;27.50;26.40;;;;;;5136695;27;20493;-58
2023/08/21 09:11:27;;;;;;;15.77;14.60;;;27.60;26.40;;;;;;5136849;27;20513;-58
2023/08/21 09:13:55;;;;;;;15.97;15.03;;;27.60;26.50;;;;;;5136762;27;20688;-58
2023/08/21 09:16:23;;;;;;;15.40;14.30;;;27.60;26.10;;;;;;5136711;27;20299;-58
2023/08/21 09:18:50;;;;;;;15.20;14.30;;;27.60;26.10;;;;;;5136419;27;20452;-59
2023/08/21 09:21:17;;;;;;;14.90;13.90;;;27.60;25.70;;;;;;5136609;27;21179;-58
2023/08/21 09:23:42;;;;;;;15.20;14.30;;;27.80;25.30;;;;;;5136562;27;20406;-58
2023/08/21 09:26:08;;;;;;;15.50;14.60;;;28.00;24.60;;;;;;5136577;27;20651;-58
2023/08/21 09:28:34;;;;;;;15.43;14.50;;;28.30;23.80;;;;;;5136259;27;20184;-58
2023/08/21 09:31:02;;;;;;;14.63;13.53;;;28.70;22.00;;;;;;5136377;27;20180;-59
2023/08/21 09:33:28;;;;;;;15.57;14.33;;;29.00;20.70;;;;;;5136332;27;20410;-58
2023/08/21 09:35:54;;;;;;;15.70;14.43;;;29.10;19.90;;;;;;5136224;27;20460;-58
2023/08/21 09:38:21;;;;;;;14.90;14.10;;;29.10;20.70;;;;;;5136040;27;20180;-58
2023/08/21 09:40:52;;;;;;;14.60;13.77;;;29.20;19.70;;;;;;5136257;27;20546;-59
2023/08/21 09:43:18;;;;;;;14.17;12.80;;;29.40;19.00;;;;;;5136227;27;21017;-58
2023/08/21 09:45:47;;;;;;;14.20;13.40;;;29.50;18.80;;;;;;5135471;27;20733;-58
2023/08/21 09:48:13;;;;;;;13.90;13.00;;;29.60;18.00;;;;;;5135914;27;20172;-58
2023/08/21 09:50:42;;;;;;;13.47;12.67;;;29.60;17.70;;;;;;5135931;27;20516;-59
2023/08/21 09:53:09;;;;;;;14.10;13.17;;;29.80;16.80;;;;;;5136009;27;20914;-59
2023/08/21 09:55:35;;;;;;;13.63;12.83;;;30.10;16.80;;;;;;5135883;27;20453;-59
2023/08/21 09:58:01;;;;;;;13.87;12.77;;;30.30;16.70;;;;;;5135678;27;20762;-59
2023/08/21 10:00:32;;;;;;;13.13;12.13;;;30.50;16.30;;;;;;5135996;27;20514;-59
2023/08/21 10:03:07;;;;;;;13.17;12.37;;;30.70;16.10;;;;;;5135823;27;20461;-58
2023/08/21 10:05:34;;;;;;;14.97;13.90;;;30.70;15.90;;;;;;5135735;27;20413;-58
2023/08/21 10:08:05;;;;;;;14.20;13.40;;;30.80;15.40;;;;;;5135491;27;20478;-58
2023/08/21 10:10:33;;;;;;;13.03;12.43;;;30.90;15.70;;;;;;5135640;27;20462;-58
2023/08/21 10:13:00;;;;;;;13.90;12.70;;;31.10;14.70;;;;;;5135615;27;20506;-58
2023/08/21 10:15:28;;;;;;;16.10;12.60;;;31.20;15.10;;;;;;5135529;27;20485;-58
2023/08/21 10:17:54;;;;;;;15.00;13.50;;;31.20;15.40;;;;;;5135245;27;20414;-58
2023/08/21 10:20:24;;;;;;;12.17;11.57;;;31.30;14.50;;;;;;5135504;27;20564;-59
2023/08/21 10:22:55;;;;;;;12.87;11.80;;;31.30;14.30;;;;;;5135459;27;20282;-59
2023/08/21 10:25:27;;;;;;;12.53;11.87;;;31.20;14.10;;;;;;5154145;27;20441;-58
2023/08/21 10:27:55;;;;;;;12.30;11.60;;;31.30;14.20;;;;;;5135160;27;20789;-58
2023/08/21 10:30:28;;;;;;;12.77;12.07;;;31.20;13.80;;;;;;5135364;27;20775;-58
2023/08/21 10:32:56;;;;;;;13.47;12.63;;;31.30;13.90;;;;;;5135444;27;20501;-59
2023/08/21 10:35:25;;;;;;;14.03;13.03;;;31.30;13.80;;;;;;5135164;27;20465;-59
2023/08/21 10:38:15;;;;;;;13.60;12.70;;;31.40;13.90;;;;;;5134981;27;20456;-59
2023/08/21 10:41:01;;;;;;;13.83;12.83;;;31.40;13.60;;;;;;5135210;27;20425;-58
2023/08/21 10:43:45;;;;;;;13.90;12.80;;;31.30;13.20;;;;;;5135084;27;20429;-58
2023/08/21 10:46:12;;;;;;;12.50;11.70;;;31.30;13.30;;;;;;5135367;27;20442;-58
2023/08/21 10:48:38;;;;;;;13.27;12.57;;;31.40;13.90;;;;;;5134997;27;20509;-59
2023/08/21 10:51:07;;;;;;;13.37;12.70;;;31.40;13.60;;;;;;5135107;27;20512;-58
2023/08/21 10:53:33;;;;;;;13.47;12.67;;;31.50;13.10;;;;;;5135076;27;20425;-60
2023/08/21 10:56:03;;;;;;;14.17;13.17;;;31.40;13.10;;;;;;5135009;27;21014;-60
2023/08/21 10:58:45;;;;;;;13.97;12.60;;;31.50;13.30;;;;;;5140203;27;20406;-58
2023/08/21 11:01:12;;;;;;;12.93;12.13;;;31.50;12.90;;;;;;5142075;27;20409;-58
2023/08/21 11:03:39;;;;;;;13.73;12.70;;;31.60;12.80;;;;;;5141756;27;20431;-59
2023/08/21 11:06:10;;;;;;;13.23;12.27;;;31.60;12.50;;;;;;5141872;27;20433;-59
2023/08/21 11:08:36;;;;;;;13.27;12.43;;;31.70;12.50;;;;;;5141623;27;20647;-59
2023/08/21 11:11:03;;;;;;;14.13;13.13;;;31.80;12.50;;;;;;5142013;27;20428;-60
2023/08/21 11:13:29;;;;;;;14.50;13.60;;;31.80;12.00;;;;;;5141792;27;20431;-62
2023/08/21 11:16:03;;;;;;;13.83;13.03;;;31.80;12.10;;;;;;5141718;27;20846;-60
2023/08/21 11:18:40;;;;;;;14.33;13.23;;;31.70;12.50;;;;;;5141513;27;20420;-61
2023/08/21 11:21:08;;;;;;;15.20;14.07;;;31.70;12.30;;;;;;5141919;27;20409;-61
2023/08/21 11:23:38;;;;;;;14.80;13.93;;;31.70;12.50;;;;;;5141689;27;20826;-62
2023/08/21 11:26:04;;;;;;;24.13;15.97;;;31.80;12.30;;;;;;5141798;27;20508;-59
2023/08/21 11:28:31;;;;;;;13.97;12.97;;;31.80;12.00;;;;;;5160011;27;20410;-57
2023/08/21 11:30:57;;;;;;;13.80;13.10;;;31.80;12.40;;;;;;5141710;27;20460;-58
2023/08/21 11:33:23;;;;;;;13.43;12.57;;;31.60;12.80;;;;;;5141704;27;20774;-57
2023/08/21 11:35:49;;;;;;;14.07;13.30;;;31.40;12.80;;;;;;5141412;27;20582;-58
2023/08/21 11:38:17;;;;;;;14.67;13.37;;;31.20;13.00;;;;;;5141409;27;20640;-58
2023/08/21 11:40:55;;;;;;;14.03;13.20;;;31.30;12.60;;;;;;5141546;27;20929;-57
2023/08/21 11:43:21;;;;;;;14.43;13.60;;;31.50;12.80;;;;;;5141714;27;20476;-57
2023/08/21 11:45:47;;;;;;;14.60;13.70;;;31.50;12.30;;;;;;5141551;27;20425;-57
2023/08/21 11:48:12;;;;;;;14.53;13.73;;;31.40;12.30;;;;;;5141145;27;20410;-57
2023/08/21 11:50:39;;;;;;;15.40;14.30;;;31.30;12.60;;;;;;5141269;27;20195;-57
2023/08/21 11:53:05;;;;;;;14.23;13.33;;;31.20;13.20;;;;;;5141430;27;20228;-59
2023/08/21 11:55:31;;;;;;;14.60;13.80;;;31.10;13.30;;;;;;5141414;27;20453;-57
2023/08/21 11:57:57;;;;;;;14.83;13.93;;;31.00;13.50;;;;;;5141038;27;20523;-58
2023/08/21 12:00:28;;;;;;;14.50;13.40;;;30.80;13.60;;;;;;5141595;27;20183;-57
2023/08/21 12:03:00;;;;;;;14.50;13.30;;;30.70;13.80;;;;;;5141298;27;20822;-59
2023/08/21 12:05:27;;;;;;;14.93;13.73;;;30.70;13.70;;;;;;5141425;27;20413;-61
2023/08/21 12:07:54;;;;;;;14.90;14.00;;;30.80;13.60;;;;;;5141043;27;20436;-60
2023/08/21 12:10:29;;;;;;;13.40;12.50;;;30.90;13.40;;;;;;5137627;27;20413;-61
2023/08/21 12:12:55;;;;;;;13.80;12.90;;;30.90;14.20;;;;;;5138171;27;20421;-61
2023/08/21 12:15:21;;;;;;;13.60;12.60;;;31.00;13.30;;;;;;5137883;27;20498;-60
2023/08/21 12:17:46;;;;;;;13.70;13.00;;;30.90;13.50;;;;;;5137600;27;20409;-61
2023/08/21 12:20:12;;;;;;;13.67;12.87;;;30.90;13.60;;;;;;5137899;27;20169;-60
2023/08/21 12:22:39;;;;;;;13.50;12.70;;;30.90;14.10;;;;;;5137835;27;20169;-61
2023/08/21 12:25:06;;;;;;;14.53;13.17;;;30.70;13.70;;;;;;5137723;27;20271;-61
2023/08/21 12:27:31;;;;;;;13.03;12.37;;;30.70;13.50;;;;;;5137494;27;20409;-61